Flight Track Log - Related Links

Times and Time Zones

All times are in EDT time to prevent confusion due to time zone crossing. See the FDX1406 flight status page for this flight to view local times or setup timezone preferences in your user account.

Time Position Orientation Groundspeed Altitude Reporting Facility
EDT Latitude Longitude Course Direction KTS MPH feet Rate Location/Type
Sat 05:03:13 AM 34.9350 -89.8220 72° East 320 368 10,700  Level FlightAware ADS-B
Sat 05:03:29 AM 34.9460 -89.7950 64° Northeast 348 400 11,200 2,043 Climbing FlightAware ADS-B
Sat 05:04:00 AM 34.9740 -89.7400 58° Northeast 390 449 12,300 3,304 Climbing FlightAware ADS-B
Sat 05:04:38 AM 35.0080 -89.6690 60° Northeast 388 447 15,000 3,917 Climbing FlightAware ADS-B
Sat 05:05:12 AM 35.0370 -89.5990 63° Northeast 406 467 17,000 3,257 Climbing FlightAware ADS-B
Sat 05:05:48 AM 35.0690 -89.5240 62° Northeast 423 487 18,800 3,127 Climbing FlightAware ADS-B
Sat 05:06:23 AM 35.1040 -89.4480 61° Northeast 434 499 20,700 2,571 Climbing FlightAware ADS-B
Sat 05:06:58 AM 35.1460 -89.3760 54° Northeast 462 532 21,800 1,676 Climbing FlightAware ADS-B
Sat 05:07:31 AM 35.1870 -89.3020 56° Northeast 488 562 22,600 1,014 Climbing FlightAware ADS-B
Sat 05:08:09 AM 35.2380 -89.2140 55° Northeast 509 586 23,000 1,268 Climbing FlightAware ADS-B
Sat 05:08:42 AM 35.2820 -89.1380 55° Northeast 511 588 24,100 1,886 Climbing FlightAware ADS-B
Sat 05:09:19 AM 35.3320 -89.0490 55° Northeast 526 605 25,200 1,895 Climbing FlightAware ADS-B
Sat 05:09:39 AM 35.3650 -89.0050 47° Northeast 527 606 25,900 1,895 Climbing FlightAware ADS-B
Sat 05:10:16 AM 35.4360 -88.9390 37° Northeast 521 600 27,000 1,826 Climbing FlightAware ADS-B
Sat 05:10:48 AM 35.4970 -88.8850 36° Northeast 512 589 28,000 1,970 Climbing FlightAware ADS-B
Sat 05:11:23 AM 35.5660 -88.8210 37° Northeast 510 587 29,200 1,500 Climbing FlightAware ADS-B
Sat 05:11:56 AM 35.6180 -88.7740 36° Northeast 508 585 29,700 696 Climbing FlightAware ADS-B
Sat 05:12:32 AM 35.6960 -88.7020 37° Northeast 503 579 30,000 1,562 Climbing FlightAware ADS-B
Sat 05:13:09 AM 35.7630 -88.6410 36° Northeast 493 567 31,600 2,522 Climbing FlightAware ADS-B
Sat 05:13:41 AM 35.8200 -88.5810 40° Northeast 493 567 32,900 2,379 Climbing FlightAware ADS-B
Sat 05:14:07 AM 35.8560 -88.5240 52° Northeast 495 570 33,900 1,684 Climbing FlightAware ADS-B
Sat 05:14:38 AM 35.8950 -88.4510 57° Northeast 485 558 34,500 1,588 Climbing FlightAware ADS-B
Sat 05:15:15 AM 35.9390 -88.3680 57° Northeast 482 555 35,700 1,690 Climbing FlightAware ADS-B
Sat 05:15:49 AM 35.9800 -88.2890 57° Northeast 484 557 36,500 1,130 Climbing FlightAware ADS-B
Sat 05:16:24 AM 36.0230 -88.2070 57° Northeast 484 557 37,000 423 Climbing FlightAware ADS-B
Sat 05:17:00 AM 36.0650 -88.1250 58° Northeast 490 564 37,000  Level FlightAware ADS-B
Sat 05:17:36 AM 36.1100 -88.0370 58° Northeast 491 565 37,000  Level FlightAware ADS-B
Sat 05:18:12 AM 36.1510 -87.9570 58° Northeast 488 562 37,000  Level FlightAware ADS-B
Sat 05:18:44 AM 36.1930 -87.8740 58° Northeast 490 564 37,000  Level FlightAware ADS-B
Sat 05:19:18 AM 36.2350 -87.7930 57° Northeast 491 565 37,000  Level FlightAware ADS-B
Sat 05:19:56 AM 36.2810 -87.7030 58° Northeast 490 564 37,000  Level FlightAware ADS-B
Sat 05:20:32 AM 36.3240 -87.6170 58° Northeast 489 563 37,000  Level FlightAware ADS-B
Sat 05:21:04 AM 36.3630 -87.5410 57° Northeast 490 564 37,000  Level FlightAware ADS-B
Sat 05:21:40 AM 36.4070 -87.4550 58° Northeast 491 565 37,000  Level FlightAware ADS-B
Sat 05:22:16 AM 36.4460 -87.3760 58° Northeast 491 565 37,000  Level FlightAware ADS-B
Sat 05:22:48 AM 36.4870 -87.2950 58° Northeast 491 565 37,000  Level FlightAware ADS-B
Sat 05:23:24 AM 36.5310 -87.2060 58° Northeast 489 563 37,000  Level FlightAware ADS-B
Sat 05:24:00 AM 36.5740 -87.1210 58° Northeast 488 562 37,000  Level FlightAware ADS-B
Sat 05:24:34 AM 36.6140 -87.0420 58° Northeast 488 562 37,000  Level FlightAware ADS-B
Sat 05:25:08 AM 36.6550 -86.9580 59° Northeast 488 562 37,000  Level FlightAware ADS-B
Sat 05:25:34 AM 36.6865 -86.8962 58° Northeast 488 562 37,000  Level FlightAware ADS-B
Sat 05:26:06 AM 36.7243 -86.8196 58° Northeast 488 562 37,000  Level FlightAware ADS-B
Sat 05:26:37 AM 36.7602 -86.7477 58° Northeast 488 562 37,000  Level FlightAware ADS-B
Sat 05:27:08 AM 36.7969 -86.6734 58° Northeast 489 563 37,000  Level FlightAware ADS-B
Sat 05:27:38 AM 36.8324 -86.6014 58° Northeast 489 563 37,000  Level FlightAware ADS-B
Sat 05:28:04 AM 36.8638 -86.5365 59° Northeast 489 563 37,000  Level FlightAware ADS-B
Sat 05:28:35 AM 36.9009 -86.4618 58° Northeast 489 563 37,000  Level FlightAware ADS-B
Sat 05:29:07 AM 36.9385 -86.3850 58° Northeast 489 563 37,000  Level FlightAware ADS-B
Sat 05:29:37 AM 36.9738 -86.3125 59° Northeast 488 562 37,000  Level FlightAware ADS-B
Sat 05:30:08 AM 37.0098 -86.2380 59° Northeast 488 562 37,000  Level FlightAware ADS-B
Sat 05:31:03 AM 37.0730 -86.1080 59° Northeast 486 559 37,000  Level FlightAware ADS-B
Sat 05:31:38 AM 37.1152 -86.0210 59° Northeast 487 560 37,000  Level FlightAware ADS-B
Sat 05:32:16 AM 37.1590 -85.9320 58° Northeast 485 558 37,000  Level FlightAware ADS-B
Sat 05:32:53 AM 37.2020 -85.8410 59° Northeast 484 557 37,000  Level FlightAware ADS-B
Sat 05:33:32 AM 37.2460 -85.7490 59° Northeast 483 556 37,000  Level FlightAware ADS-B
Sat 05:33:50 AM 37.2681 -85.7036 59° Northeast 483 556 37,000  Level FlightAware ADS-B
Sat 05:34:20 AM 37.3028 -85.6314 59° Northeast 483 556 37,000  Level FlightAware ADS-B
Sat 05:34:52 AM 37.3395 -85.5543 59° Northeast 483 556 37,000  Level FlightAware ADS-B
Sat 05:35:23 AM 37.3751 -85.4798 59° Northeast 483 556 37,000  Level FlightAware ADS-B
Sat 05:35:53 AM 37.4091 -85.4077 59° Northeast 483 556 37,000  Level FlightAware ADS-B
Sat 05:36:24 AM 37.4447 -85.3330 59° Northeast 482 555 37,000  Level FlightAware ADS-B
Sat 05:36:54 AM 37.4790 -85.2607 59° Northeast 482 555 37,000  Level FlightAware ADS-B
Sat 05:37:25 AM 37.5132 -85.1885 59° Northeast 481 554 37,000  Level FlightAware ADS-B
Sat 05:37:55 AM 37.5473 -85.1164 59° Northeast 481 554 37,000  Level FlightAware ADS-B
Sat 05:38:26 AM 37.5833 -85.0393 59° Northeast 482 555 37,000  Level FlightAware ADS-B
Sat 05:38:57 AM 37.6182 -84.9645 59° Northeast 482 555 37,000  Level FlightAware ADS-B
Sat 05:39:28 AM 37.6534 -84.8894 59° Northeast 482 555 37,000  Level FlightAware ADS-B
Sat 05:39:58 AM 37.6874 -84.8168 59° Northeast 481 554 37,000  Level FlightAware ADS-B
Sat 05:40:28 AM 37.7213 -84.7443 59° Northeast 481 554 37,000  Level FlightAware ADS-B
Sat 05:40:59 AM 37.7557 -84.6694 60° Northeast 480 552 37,000  Level FlightAware ADS-B
Sat 05:41:32 AM 37.7932 -84.5896 59° Northeast 479 551 37,000  Level FlightAware ADS-B
Sat 05:42:03 AM 37.8274 -84.5147 60° Northeast 479 551 37,000  Level FlightAware ADS-B
Sat 05:42:53 AM 37.8840 -84.3940 59° Northeast 478 550 37,000  Level FlightAware ADS-B
Sat 05:43:29 AM 37.9220 -84.3090 60° Northeast 478 550 37,000  Level FlightAware ADS-B
Sat 05:44:07 AM 37.9650 -84.2150 60° Northeast 477 549 37,000  Level FlightAware ADS-B
Sat 05:44:39 AM 38.0010 -84.1380 59° Northeast 475 547 37,000  Level FlightAware ADS-B
Sat 05:45:15 AM 38.0390 -84.0530 60° Northeast 475 547 37,000  Level FlightAware ADS-B
Sat 05:45:51 AM 38.0800 -83.9640 60° Northeast 475 547 37,000  Level FlightAware ADS-B
Sat 05:46:27 AM 38.1190 -83.8770 60° Northeast 476 548 37,000  Level FlightAware ADS-B
Sat 05:46:59 AM 38.1550 -83.7990 60° Northeast 476 548 37,000  Level FlightAware ADS-B
Sat 05:47:35 AM 38.1930 -83.7140 60° Northeast 476 548 37,000  Level FlightAware ADS-B
Sat 05:48:11 AM 38.2320 -83.6270 60° Northeast 475 547 37,000  Level FlightAware ADS-B
Sat 05:48:43 AM 38.2680 -83.5470 60° Northeast 475 547 37,000  Level FlightAware ADS-B
Sat 05:49:26 AM 38.3148 -83.4426 60° Northeast 474 545 37,000  Level FlightAware ADS-B
Sat 05:49:57 AM 38.3483 -83.3673 60° Northeast 473 544 37,000  Level FlightAware ADS-B
Sat 05:50:29 AM 38.3828 -83.2899 60° Northeast 472 543 37,000  Level FlightAware ADS-B
Sat 05:51:03 AM 38.4195 -83.2077 60° Northeast 472 543 37,000  Level FlightAware ADS-B
Sat 05:51:39 AM 38.4580 -83.1210 60° Northeast 471 542 37,000  Level FlightAware ADS-B
Sat 05:52:12 AM 38.4910 -83.0460 61° Northeast 470 541 37,000  Level FlightAware ADS-B
Sat 05:52:48 AM 38.5290 -82.9580 61° Northeast 470 541 37,000  Level FlightAware ADS-B
Sat 05:53:24 AM 38.5690 -82.8690 60° Northeast 471 542 37,000  Level FlightAware ADS-B
Sat 05:54:00 AM 38.6060 -82.7840 61° Northeast 471 542 37,000  Level FlightAware ADS-B
Sat 05:54:37 AM 38.6470 -82.6890 61° Northeast 472 543 37,000  Level FlightAware ADS-B
Sat 05:55:09 AM 38.6800 -82.6160 60° Northeast 472 543 37,000  Level FlightAware ADS-B
Sat 05:55:44 AM 38.7170 -82.5300 61° Northeast 471 542 37,000  Level FlightAware ADS-B
Sat 05:56:21 AM 38.7550 -82.4430 61° Northeast 471 542 37,000  Level FlightAware ADS-B
Sat 05:57:01 AM 38.7990 -82.3400 61° Northeast 472 543 37,000  Level FlightAware ADS-B
Sat 05:57:37 AM 38.8380 -82.2490 61° Northeast 471 542 37,000  Level FlightAware ADS-B
Sat 05:58:13 AM 38.8760 -82.1610 61° Northeast 470 541 37,000  Level FlightAware ADS-B
Sat 05:58:45 AM 38.9090 -82.0850 61° Northeast 470 541 37,000  Level FlightAware ADS-B
Sat 05:59:21 AM 38.9470 -81.9950 61° Northeast 470 541 37,000  Level FlightAware ADS-B
Sat 05:59:57 AM 38.9840 -81.9090 61° Northeast 470 541 37,000  Level FlightAware ADS-B
Sat 06:00:29 AM 39.0170 -81.8300 62° Northeast 469 540 37,000  Level FlightAware ADS-B
Sat 06:01:06 AM 39.0560 -81.7370 62° Northeast 468 539 37,000  Level FlightAware ADS-B
Sat 06:01:43 AM 39.0940 -81.6490 61° Northeast 469 540 37,000  Level FlightAware ADS-B
Sat 06:02:16 AM 39.1280 -81.5680 62° Northeast 470 541 37,000  Level FlightAware ADS-B
Sat 06:02:51 AM 39.1650 -81.4800 62° Northeast 469 540 37,000  Level FlightAware ADS-B
Sat 06:03:27 AM 39.2010 -81.3940 62° Northeast 467 537 37,000  Level FlightAware ADS-B
Sat 06:04:01 AM 39.2370 -81.3080 62° Northeast 467 537 37,000  Level FlightAware ADS-B
Sat 06:04:37 AM 39.2730 -81.2220 62° Northeast 466 536 37,000  Level FlightAware ADS-B
Sat 06:05:13 AM 39.3100 -81.1320 62° Northeast 466 536 37,000  Level FlightAware ADS-B
Sat 06:05:45 AM 39.3420 -81.0560 61° Northeast 465 535 37,000  Level FlightAware ADS-B
Sat 06:06:18 AM 39.3760 -80.9720 62° Northeast 465 535 37,000  Level FlightAware ADS-B
Sat 06:06:57 AM 39.4160 -80.8770 61° Northeast 465 535 37,000  Level FlightAware ADS-B
Sat 06:07:33 AM 39.4520 -80.7880 62° Northeast 463 533 37,000  Level FlightAware ADS-B
Sat 06:08:09 AM 39.4870 -80.7030 62° Northeast 461 531 37,000  Level FlightAware ADS-B
Sat 06:08:40 AM 39.5180 -80.6270 62° Northeast 459 528 37,000  Level FlightAware ADS-B
Sat 06:09:18 AM 39.5560 -80.5320 63° Northeast 457 526 37,000  Level FlightAware ADS-B
Sat 06:09:52 AM 39.5890 -80.4520 62° Northeast 458 527 37,000  Level FlightAware ADS-B
Sat 06:10:29 AM 39.6250 -80.3620 63° Northeast 458 527 37,000  Level FlightAware ADS-B
Sat 06:11:02 AM 39.6580 -80.2820 62° Northeast 457 526 37,000  Level FlightAware ADS-B
Sat 06:11:36 AM 39.6920 -80.1970 63° Northeast 457 526 37,000  Level FlightAware ADS-B
Sat 06:12:12 AM 39.7270 -80.1090 63° Northeast 458 527 37,000  Level FlightAware ADS-B
Sat 06:12:48 AM 39.7600 -80.0270 62° Northeast 457 526 37,000  Level FlightAware ADS-B
Sat 06:13:22 AM 39.7950 -79.9420 62° Northeast 456 525 37,000 86 Level FlightAware ADS-B
Sat 06:13:58 AM 39.8300 -79.8520 63° Northeast 454 522 37,100 83 Climbing FlightAware ADS-B
Sat 06:14:34 AM 39.8640 -79.7670 62° Northeast 453 521 37,100 -88 Level FlightAware ADS-B
Sat 06:15:06 AM 39.8960 -79.6870 62° Northeast 451 519 37,000 -88 Descending FlightAware ADS-B
Sat 06:15:42 AM 39.9300 -79.6000 63° Northeast 450 518 37,000  Level FlightAware ADS-B
Sat 06:16:18 AM 39.9630 -79.5160 63° Northeast 450 518 37,000  Level FlightAware ADS-B
Sat 06:16:50 AM 39.9950 -79.4360 62° Northeast 450 518 37,000  Level FlightAware ADS-B
Sat 06:17:26 AM 40.0290 -79.3490 63° Northeast 450 518 37,000  Level FlightAware ADS-B
Sat 06:18:00 AM 40.0600 -79.2690 63° Northeast 449 517 37,000  Level FlightAware ADS-B
Sat 06:18:38 AM 40.0970 -79.1740 63° Northeast 449 517 37,000  Level FlightAware ADS-B
Sat 06:19:08 AM 40.1250 -79.1020 63° Northeast 448 516 37,000  Level FlightAware ADS-B
Sat 06:19:46 AM 40.1600 -79.0100 64° Northeast 445 512 37,000  Level FlightAware ADS-B
Sat 06:20:24 AM 40.1960 -78.9190 63° Northeast 445 512 37,000  Level FlightAware ADS-B
Sat 06:20:56 AM 40.2250 -78.8420 64° Northeast 446 513 37,000  Level FlightAware ADS-B
Sat 06:21:32 AM 40.2580 -78.7580 63° Northeast 445 512 37,000  Level FlightAware ADS-B
Sat 06:22:08 AM 40.2920 -78.6680 64° Northeast 445 512 37,000  Level FlightAware ADS-B
Sat 06:22:40 AM 40.3210 -78.5910 64° Northeast 444 511 37,000  Level FlightAware ADS-B
Sat 06:23:16 AM 40.3530 -78.5070 63° Northeast 444 511 37,000  Level FlightAware ADS-B
Sat 06:23:52 AM 40.3870 -78.4180 63° Northeast 444 511 37,000  Level FlightAware ADS-B
Sat 06:24:24 AM 40.4160 -78.3410 64° Northeast 444 511 37,000  Level FlightAware ADS-B
Sat 06:25:00 AM 40.4480 -78.2560 64° Northeast 444 511 37,000  Level FlightAware ADS-B
Sat 06:25:38 AM 40.4830 -78.1650 63° Northeast 443 510 37,000  Level FlightAware ADS-B
Sat 06:26:10 AM 40.5120 -78.0870 64° Northeast 444 511 37,000  Level FlightAware ADS-B
Sat 06:26:42 AM 40.5370 -78.0200 64° Northeast 444 511 37,000  Level FlightAware ADS-B
Sat 06:27:22 AM 40.5730 -77.9250 63° Northeast 444 511 37,000  Level FlightAware ADS-B
Sat 06:27:57 AM 40.6040 -77.8420 64° Northeast 444 511 37,000  Level FlightAware ADS-B
Sat 06:28:32 AM 40.6380 -77.7500 64° Northeast 445 512 37,000  Level FlightAware ADS-B
Sat 06:29:07 AM 40.6680 -77.6670 64° Northeast 446 513 37,000  Level FlightAware ADS-B
Sat 06:29:42 AM 40.7010 -77.5790 64° Northeast 445 512 37,000  Level FlightAware ADS-B
Sat 06:30:17 AM 40.7330 -77.4940 64° Northeast 446 513 37,000  Level FlightAware ADS-B
Sat 06:30:47 AM 40.7560 -77.4300 65° Northeast 447 514 37,000  Level FlightAware ADS-B
Sat 06:31:27 AM 40.7950 -77.3210 65° Northeast 449 517 37,000  Level FlightAware ADS-B
Sat 06:32:02 AM 40.8260 -77.2370 64° Northeast 450 518 37,000  Level FlightAware ADS-B
Sat 06:32:38 AM 40.8630 -77.1350 64° Northeast 452 520 37,000  Level FlightAware ADS-B
Sat 06:33:11 AM 40.8920 -77.0550 64° Northeast 454 522 37,000  Level FlightAware ADS-B
Sat 06:33:48 AM 40.9260 -76.9620 64° Northeast 455 524 37,000  Level FlightAware ADS-B
Sat 06:34:21 AM 40.9550 -76.8790 65° Northeast 454 522 37,000 86 Level FlightAware ADS-B
Sat 06:34:58 AM 40.9890 -76.7870 64° Northeast 454 522 37,100 77 Climbing FlightAware ADS-B
Sat 06:35:39 AM 41.0260 -76.6830 65° Northeast 454 522 37,100  Level FlightAware ADS-B
Sat 06:36:12 AM 41.0550 -76.6010 65° Northeast 451 519 37,100 -91 Level FlightAware ADS-B
Sat 06:36:45 AM 41.0830 -76.5210 65° Northeast 450 518 37,000 -86 Descending FlightAware ADS-B
Sat 06:37:22 AM 41.1180 -76.4240 64° Northeast 449 517 37,000  Level FlightAware ADS-B
Sat 06:38:00 AM 41.1490 -76.3370 65° Northeast 449 517 37,000  Level FlightAware ADS-B
Sat 06:38:34 AM 41.1860 -76.2510 60° Northeast 441 507 37,000  Level FlightAware ADS-B
Sat 06:39:08 AM 41.2310 -76.1820 49° Northeast 440 506 37,000  Level FlightAware ADS-B
Sat 06:39:43 AM 41.2770 -76.1100 50° Northeast 440 506 37,000  Level FlightAware ADS-B
Sat 06:40:21 AM 41.3290 -76.0330 48° Northeast 439 505 37,000  Level FlightAware ADS-B
Sat 06:40:51 AM 41.3690 -75.9720 49° Northeast 439 505 37,000  Level FlightAware ADS-B
Sat 06:41:29 AM 41.4200 -75.8950 49° Northeast 440 506 37,000  Level FlightAware ADS-B
Sat 06:42:04 AM 41.4680 -75.8210 49° Northeast 440 506 37,000  Level FlightAware ADS-B
Sat 06:42:37 AM 41.5120 -75.7540 49° Northeast 440 506 37,000  Level FlightAware ADS-B
Sat 06:43:13 AM 41.5610 -75.6800 48° Northeast 440 506 37,000  Level FlightAware ADS-B
Sat 06:43:50 AM 41.6090 -75.6060 49° Northeast 441 507 37,000  Level FlightAware ADS-B
Sat 06:44:21 AM 41.6470 -75.5460 50° Northeast 441 507 37,000  Level FlightAware ADS-B
Sat 06:44:58 AM 41.7010 -75.4640 49° Northeast 440 506 37,000  Level FlightAware ADS-B
Sat 06:45:34 AM 41.7450 -75.3960 49° Northeast 440 506 37,000  Level FlightAware ADS-B
Sat 06:46:08 AM 41.7930 -75.3220 49° Northeast 440 506 37,000  Level FlightAware ADS-B
Sat 06:46:44 AM 41.8390 -75.2490 50° Northeast 439 505 37,000  Level FlightAware ADS-B
Sat 06:47:17 AM 41.8820 -75.1830 49° Northeast 436 502 37,000  Level FlightAware ADS-B
Sat 06:47:55 AM 41.9330 -75.0990 51° Northeast 438 504 37,000  Level FlightAware ADS-B
Sat 06:48:23 AM 41.9570 -75.0270 66° East 448 516 37,000  Level FlightAware ADS-B
Sat 06:48:56 AM 41.9750 -74.9410 74° East 448 516 37,000  Level FlightAware ADS-B
Sat 06:49:31 AM 41.9950 -74.8480 74° East 446 513 37,000  Level FlightAware ADS-B
Sat 06:50:07 AM 42.0160 -74.7520 74° East 446 513 37,000  Level FlightAware ADS-B
Sat 06:50:43 AM 42.0350 -74.6610 74° East 445 512 37,000  Level FlightAware ADS-B
Sat 06:51:22 AM 42.0570 -74.5550 74° East 444 511 37,000  Level FlightAware ADS-B
Sat 06:52:01 AM 42.0790 -74.4460 75° East 443 510 37,000  Level FlightAware ADS-B
Sat 06:52:32 AM 42.0960 -74.3660 74° East 444 511 37,000  Level FlightAware ADS-B
Sat 06:53:08 AM 42.1160 -74.2680 75° East 444 511 37,000  Level FlightAware ADS-B
Sat 06:53:45 AM 42.1360 -74.1690 75° East 443 510 37,000  Level FlightAware ADS-B
Sat 06:54:16 AM 42.1520 -74.0900 75° East 442 509 37,000 86 Level FlightAware ADS-B
Sat 06:54:55 AM 42.1730 -73.9860 75° East 439 505 37,100  Climbing FlightAware ADS-B
Sat 06:55:27 AM 42.1910 -73.9000 74° East 438 504 37,000 -88 Descending FlightAware ADS-B
Sat 06:56:03 AM 42.2100 -73.8080 74° East 438 504 37,000  Level FlightAware ADS-B
Sat 06:56:37 AM 42.2270 -73.7210 75° East 437 503 37,000  Level FlightAware ADS-B
Sat 06:56:44 AM 42.2320 -73.6970 74° East 438 504 37,000  Level FlightAware ADS-B (KSNC)
Sat 06:57:42 AM 42.2623 -73.5445 75° East 438 504 37,000  Level FlightAware ADS-B (KSNC)
Sat 06:58:18 AM 42.2812 -73.4493 75° East 440 506 37,000  Level FlightAware ADS-B (KSNC)
Sat 06:58:55 AM 42.2992 -73.3562 75° East 443 510 37,000  Level FlightAware ADS-B (KSNC)
Sat 06:59:33 AM 42.3201 -73.2492 75° East 445 512 37,000  Level FlightAware ADS-B (KSNC)
Sat 07:00:05 AM 42.3362 -73.1684 75° East 447 514 37,000 -290 Level FlightAware ADS-B (KSNC)
Sat 07:00:35 AM 42.3528 -73.0825 75° East 441 507 36,700 -800 Descending FlightAware ADS-B (KSNC)
Sat 07:01:05 AM 42.3680 -73.0029 75° East 438 504 36,200 -1,967 Descending FlightAware ADS-B (KSNC)
Sat 07:01:36 AM 42.3836 -72.9212 75° East 437 503 34,700 -3,086 Descending FlightAware ADS-B (KSNC)
Sat 07:02:15 AM 42.4035 -72.8172 75° East 443 510 32,600 -3,171 Descending FlightAware ADS-B (KSNC)
Sat 07:02:46 AM 42.4193 -72.7340 76° East 443 510 31,000 -2,710 Descending FlightAware ADS-B (KSNC)
Sat 07:03:17 AM 42.4349 -72.6522 75° East 454 522 29,800 -2,557 Descending FlightAware ADS-B (KSNC)
Sat 07:03:47 AM 42.4513 -72.5665 75° East 454 522 28,400 -2,700 Descending FlightAware ADS-B (KSNC)
Sat 07:04:17 AM 42.4669 -72.4845 76° East 449 517 27,100 -2,656 Descending FlightAware ADS-B (KSNC)
Sat 07:04:48 AM 42.4825 -72.4003 76° East 447 514 25,700 -2,535 Descending FlightAware ADS-B (KSNC)
Sat 07:05:28 AM 42.5020 -72.2957 76° East 433 498 24,100 -2,486 Descending FlightAware ADS-B (KSNC)
Sat 07:05:58 AM 42.5168 -72.2154 76° East 419 482 22,800 -3,100 Descending FlightAware ADS-B (KSNC)
Sat 07:06:28 AM 42.5312 -72.1406 75° East 406 467 21,000 -3,907 Descending FlightAware ADS-B (KSNC)
Sat 07:07:24 AM 42.5406 -72.0006 85° East 400 460 17,200 -3,766 Descending FlightAware ADS-B (KSNC)
Sat 07:08:02 AM 42.5320 -71.9112 97° East 380 437 15,100 -3,120 Descending FlightAware ADS-B (KSNC)
Sat 07:08:39 AM 42.5250 -71.8220 96° East 368 423 13,300 -3,000 Descending FlightAware ADS-B
Sat 07:09:14 AM 42.5170 -71.7460 98° East 357 411 11,500 -2,167 Descending FlightAware ADS-B
Sat 07:09:51 AM 42.5090 -71.6660 98° East 329 379 10,700 -783 Descending FlightAware ADS-B
Sat 07:10:23 AM 42.5040 -71.6060 96° East 296 341 10,600 -435 Descending FlightAware ADS-B
Sat 07:11:00 AM 42.4980 -71.5370 97° East 273 314 10,200 -750 Descending FlightAware ADS-B
Sat 07:11:35 AM 42.4975 -71.5374 214° Southwest 270 311 9,700 -750 Descending FlightAware ADS-B (EPKK / KRK)
Sat 07:12:04 AM 42.4869 -71.4320 98° East 266 306 9,400 -894 Descending FlightAware ADS-B (EPKK / KRK)
Sat 07:12:22 AM 42.4850 -71.4089 97° East 260 299 9,000 -585 Descending FlightAware ADS-B (EPKK / KRK)
Sat 07:12:45 AM 42.4809 -71.3634 97° East 259 298 9,000 -421 Level FlightAware ADS-B (EPKK / KRK)
Sat 07:13:19 AM 42.4750 -71.3080 98° East 262 302 8,600 -724 Descending FlightAware ADS-B
Sat 07:13:43 AM 42.4715 -71.2693 97° East 261 300 8,300 -682 Descending FlightAware ADS-B (EPKK / KRK)
Sat 07:14:03 AM 42.4683 -71.2369 98° East 262 302 8,100 -585 Descending FlightAware ADS-B (EPKK / KRK)
Sat 07:14:24 AM 42.4654 -71.2028 97° East 260 299 7,900 -698 Descending FlightAware ADS-B (EPKK / KRK)
Sat 07:14:46 AM 42.4622 -71.1689 97° East 260 299 7,600 -667 Descending FlightAware ADS-B (EPKK / KRK)
Sat 07:15:09 AM 42.4589 -71.1316 97° East 261 300 7,400 -698 Descending FlightAware ADS-B (EPKK / KRK)
Sat 07:15:29 AM 42.4560 -71.0995 97° East 254 292 7,100 -750 Descending FlightAware ADS-B (EPKK / KRK)
Sat 07:15:49 AM 42.4533 -71.0687 97° East 241 277 6,900 -600 Descending FlightAware ADS-B (EPKK / KRK)
Sat 07:16:09 AM 42.4507 -71.0410 97° East 228 262 6,700 -581 Descending FlightAware ADS-B (EPKK / KRK)
Sat 07:16:20 AM 42.4475 -71.0246 105° East 224 258 6,600 -600 Descending FlightAware ADS-B (EPKK / KRK)
Sat 07:16:29 AM 42.4424 -71.0124 120° Southeast 226 260 6,500 -600 Descending FlightAware ADS-B (EPKK / KRK)
Sat 07:16:50 AM 42.4285 -70.9894 129° Southeast 224 258 6,300 -900 Descending FlightAware ADS-B (EPKK / KRK)
Sat 07:17:09 AM 42.4166 -70.9681 127° Southeast 226 260 5,900 -1,692 Descending FlightAware ADS-B (EPKK / KRK)
Sat 07:17:29 AM 42.4040 -70.9450 127° Southeast 231 266 5,200 -1,902 Descending FlightAware ADS-B (EPKK / KRK)
Sat 07:17:50 AM 42.3911 -70.9203 125° Southeast 228 262 4,600 -1,571 Descending FlightAware ADS-B (EPKK / KRK)
Sat 07:18:11 AM 42.3781 -70.8966 127° Southeast 221 254 4,100 -1,500 Descending FlightAware ADS-B (EPKK / KRK)
Sat 07:18:30 AM 42.3664 -70.8755 127° Southeast 219 252 3,600 -1,610 Descending FlightAware ADS-B (EPKK / KRK)
Sat 07:18:52 AM 42.3536 -70.8511 125° Southeast 217 250 3,000 -1,286 Descending FlightAware ADS-B (EPKK / KRK)
Sat 07:19:12 AM 42.3418 -70.8294 126° Southeast 216 249 2,700 -450 Descending FlightAware ADS-B (EPKK / KRK)
Sat 07:19:32 AM 42.3281 -70.8094 133° Southeast 218 251 2,700 -150 Level FlightAware ADS-B (EPKK / KRK)
Sat 07:19:52 AM 42.3104 -70.7986 156° South 226 260 2,600 -293 Descending FlightAware ADS-B (EPKK / KRK)
Sat 07:20:13 AM 42.2916 -70.8114 207° Southwest 228 262 2,500 -387 Descending FlightAware ADS-B (EPKK / KRK)
Sat 07:20:54 AM 42.2910 -70.8630 269° West 219 252 2,200 -577 Descending FlightAware ADS-B
Sat 07:21:05 AM 42.2940 -70.8794 284° West 203 234 2,000 -1,286 Descending FlightAware ADS-B (EPKK / KRK)
Sat 07:21:36 AM 42.3040 -70.9160 290° West 183 211 1,300 -1,176 Descending FlightAware ADS-B
Sat 07:21:56 AM 42.3130 -70.9350 303° West 169 194 1,000 -973 Descending FlightAware ADS-B
Sat 07:22:13 AM 42.3210 -70.9460 315° West 152 175 700 -1,000 Descending FlightAware ADS-B
Sat 07:22:38 AM 42.3330 -70.9630 314° West 147 169 300 -766 Descending FlightAware ADS-B
Sat 07:23:00 AM 42.3430 -70.9760 316° Northwest 140 161 100 -245 Descending FlightAware ADS-B
Sat 07:23:27 AM 42.3540 -70.9900 317° Northwest 140 161 100  Level FlightAware ADS-B
Sat 07:30:00 AM 42.3500 -71.0000 North  Level FlightAware Approximate
Sat 07:31:00 AM 42.3630 -71.0064 North  Level Estimated

Login

Don't have an account? Register now (free) for customized features, flight alerts, and more!